sensor_id;sensor_type;location;lat;lon;timestamp;P1;durP1;ratioP1;P2;durP2;ratioP2
2049;SDS011;8478;49.208;8.806;2022-12-18T00:01:43;32.23;;;29.20;;
2049;SDS011;8478;49.208;8.806;2022-12-18T00:04:14;31.33;;;28.30;;
2049;SDS011;8478;49.208;8.806;2022-12-18T00:06:45;30.20;;;27.35;;
2049;SDS011;8478;49.208;8.806;2022-12-18T00:09:11;32.33;;;29.40;;
2049;SDS011;8478;49.208;8.806;2022-12-18T00:11:37;29.83;;;26.93;;
2049;SDS011;8478;49.208;8.806;2022-12-18T00:14:02;32.50;;;29.20;;
2049;SDS011;8478;49.208;8.806;2022-12-18T00:16:28;30.07;;;27.07;;
2049;SDS011;8478;49.208;8.806;2022-12-18T00:18:56;30.23;;;27.23;;
2049;SDS011;8478;49.208;8.806;2022-12-18T00:21:22;31.50;;;28.17;;
2049;SDS011;8478;49.208;8.806;2022-12-18T00:23:48;29.90;;;26.97;;
2049;SDS011;8478;49.208;8.806;2022-12-18T00:26:36;33.28;;;29.55;;
2049;SDS011;8478;49.208;8.806;2022-12-18T00:29:05;34.53;;;30.92;;
2049;SDS011;8478;49.208;8.806;2022-12-18T00:31:41;35.20;;;31.47;;
2049;SDS011;8478;49.208;8.806;2022-12-18T00:34:09;37.30;;;30.93;;
2049;SDS011;8478;49.208;8.806;2022-12-18T00:36:37;36.58;;;32.72;;
2049;SDS011;8478;49.208;8.806;2022-12-18T00:39:04;34.50;;;30.85;;
2049;SDS011;8478;49.208;8.806;2022-12-18T00:41:30;31.17;;;27.65;;
2049;SDS011;8478;49.208;8.806;2022-12-18T00:44:16;35.05;;;29.85;;
2049;SDS011;8478;49.208;8.806;2022-12-18T00:46:43;31.75;;;28.33;;
2049;SDS011;8478;49.208;8.806;2022-12-18T00:49:10;32.22;;;28.92;;
2049;SDS011;8478;49.208;8.806;2022-12-18T00:51:35;40.23;;;35.77;;
2049;SDS011;8478;49.208;8.806;2022-12-18T00:54:01;37.20;;;32.60;;
2049;SDS011;8478;49.208;8.806;2022-12-18T00:56:27;43.13;;;34.30;;
2049;SDS011;8478;49.208;8.806;2022-12-18T00:58:52;48.77;;;38.17;;
2049;SDS011;8478;49.208;8.806;2022-12-18T01:01:18;43.67;;;36.37;;
2049;SDS011;8478;49.208;8.806;2022-12-18T01:03:44;46.25;;;37.30;;
2049;SDS011;8478;49.208;8.806;2022-12-18T01:06:12;41.42;;;36.15;;
2049;SDS011;8478;49.208;8.806;2022-12-18T01:08:39;37.50;;;33.60;;
2049;SDS011;8478;49.208;8.806;2022-12-18T01:11:08;37.93;;;34.07;;
2049;SDS011;8478;49.208;8.806;2022-12-18T01:13:36;35.00;;;30.60;;
2049;SDS011;8478;49.208;8.806;2022-12-18T01:16:02;34.60;;;30.87;;
2049;SDS011;8478;49.208;8.806;2022-12-18T01:18:28;38.10;;;32.70;;
2049;SDS011;8478;49.208;8.806;2022-12-18T01:20:54;34.87;;;30.50;;
2049;SDS011;8478;49.208;8.806;2022-12-18T01:23:19;40.27;;;33.00;;
2049;SDS011;8478;49.208;8.806;2022-12-18T01:25:45;37.93;;;33.80;;
2049;SDS011;8478;49.208;8.806;2022-12-18T01:28:10;39.40;;;35.13;;
2049;SDS011;8478;49.208;8.806;2022-12-18T01:30:36;40.10;;;33.90;;
2049;SDS011;8478;49.208;8.806;2022-12-18T01:33:03;36.27;;;32.33;;
2049;SDS011;8478;49.208;8.806;2022-12-18T01:35:30;41.00;;;35.40;;
2049;SDS011;8478;49.208;8.806;2022-12-18T01:37:56;41.53;;;36.25;;
2049;SDS011;8478;49.208;8.806;2022-12-18T01:40:22;37.47;;;33.50;;
2049;SDS011;8478;49.208;8.806;2022-12-18T01:42:54;39.60;;;33.90;;
2049;SDS011;8478;49.208;8.806;2022-12-18T01:45:24;40.25;;;35.08;;
2049;SDS011;8478;49.208;8.806;2022-12-18T01:47:56;40.13;;;32.37;;
2049;SDS011;8478;49.208;8.806;2022-12-18T01:52:54;48.17;;;38.03;;
2049;SDS011;8478;49.208;8.806;2022-12-18T01:55:23;47.27;;;37.73;;
2049;SDS011;8478;49.208;8.806;2022-12-18T01:57:55;42.22;;;35.00;;
2049;SDS011;8478;49.208;8.806;2022-12-18T02:00:22;39.00;;;34.93;;
2049;SDS011;8478;49.208;8.806;2022-12-18T02:02:50;35.92;;;32.15;;
2049;SDS011;8478;49.208;8.806;2022-12-18T02:05:17;35.95;;;32.08;;
2049;SDS011;8478;49.208;8.806;2022-12-18T02:07:58;41.60;;;35.33;;
2049;SDS011;8478;49.208;8.806;2022-12-18T02:15:47;36.88;;;32.15;;
2049;SDS011;8478;49.208;8.806;2022-12-18T02:18:38;39.60;;;34.28;;
2049;SDS011;8478;49.208;8.806;2022-12-18T02:24:00;35.90;;;32.00;;
2049;SDS011;8478;49.208;8.806;2022-12-18T02:26:40;32.73;;;29.53;;
2049;SDS011;8478;49.208;8.806;2022-12-18T02:29:16;33.50;;;30.10;;
2049;SDS011;8478;49.208;8.806;2022-12-18T02:31:49;32.40;;;29.00;;
2049;SDS011;8478;49.208;8.806;2022-12-18T02:34:18;31.67;;;28.25;;
2049;SDS011;8478;49.208;8.806;2022-12-18T02:36:48;30.45;;;27.38;;
2049;SDS011;8478;49.208;8.806;2022-12-18T02:39:15;30.63;;;27.38;;
2049;SDS011;8478;49.208;8.806;2022-12-18T02:41:42;29.67;;;26.58;;
2049;SDS011;8478;49.208;8.806;2022-12-18T02:44:10;29.90;;;24.57;;
2049;SDS011;8478;49.208;8.806;2022-12-18T02:46:38;31.63;;;28.40;;
2049;SDS011;8478;49.208;8.806;2022-12-18T02:52:07;30.95;;;27.60;;
2049;SDS011;8478;49.208;8.806;2022-12-18T02:55:39;30.67;;;25.88;;
2049;SDS011;8478;49.208;8.806;2022-12-18T02:57:56;32.78;;;27.10;;
2049;SDS011;8478;49.208;8.806;2022-12-18T03:00:29;29.10;;;25.67;;
2049;SDS011;8478;49.208;8.806;2022-12-18T03:09:06;45.97;;;38.13;;
2049;SDS011;8478;49.208;8.806;2022-12-18T03:11:43;45.75;;;40.70;;
2049;SDS011;8478;49.208;8.806;2022-12-18T03:14:32;37.88;;;33.92;;
2049;SDS011;8478;49.208;8.806;2022-12-18T03:17:03;33.45;;;29.90;;
2049;SDS011;8478;49.208;8.806;2022-12-18T03:19:32;35.73;;;30.50;;
2049;SDS011;8478;49.208;8.806;2022-12-18T03:22:00;35.55;;;31.95;;
2049;SDS011;8478;49.208;8.806;2022-12-18T03:24:28;35.83;;;32.33;;
2049;SDS011;8478;49.208;8.806;2022-12-18T03:27:02;37.28;;;33.03;;
2049;SDS011;8478;49.208;8.806;2022-12-18T03:29:37;34.53;;;31.15;;
2049;SDS011;8478;49.208;8.806;2022-12-18T03:32:14;34.53;;;31.00;;
2049;SDS011;8478;49.208;8.806;2022-12-18T03:34:46;32.80;;;29.50;;
2049;SDS011;8478;49.208;8.806;2022-12-18T03:37:15;35.43;;;31.93;;
2049;SDS011;8478;49.208;8.806;2022-12-18T03:39:41;32.93;;;29.67;;
2049;SDS011;8478;49.208;8.806;2022-12-18T03:42:12;32.33;;;29.10;;
2049;SDS011;8478;49.208;8.806;2022-12-18T03:48:07;33.57;;;30.13;;
2049;SDS011;8478;49.208;8.806;2022-12-18T03:56:05;32.50;;;28.80;;
2049;SDS011;8478;49.208;8.806;2022-12-18T03:58:33;31.58;;;28.42;;
2049;SDS011;8478;49.208;8.806;2022-12-18T04:01:03;32.08;;;28.65;;
2049;SDS011;8478;49.208;8.806;2022-12-18T04:03:35;33.17;;;28.60;;
2049;SDS011;8478;49.208;8.806;2022-12-18T04:06:02;34.70;;;31.38;;
2049;SDS011;8478;49.208;8.806;2022-12-18T04:08:30;31.80;;;28.60;;
2049;SDS011;8478;49.208;8.806;2022-12-18T04:10:56;33.40;;;30.02;;
2049;SDS011;8478;49.208;8.806;2022-12-18T04:13:22;33.17;;;29.60;;
2049;SDS011;8478;49.208;8.806;2022-12-18T04:15:48;31.55;;;28.45;;
2049;SDS011;8478;49.208;8.806;2022-12-18T04:18:14;31.50;;;28.30;;
2049;SDS011;8478;49.208;8.806;2022-12-18T04:20:40;29.50;;;26.83;;
2049;SDS011;8478;49.208;8.806;2022-12-18T04:23:05;33.53;;;30.10;;
2049;SDS011;8478;49.208;8.806;2022-12-18T04:25:31;33.17;;;29.77;;
2049;SDS011;8478;49.208;8.806;2022-12-18T04:27:57;34.40;;;30.03;;
2049;SDS011;8478;49.208;8.806;2022-12-18T04:30:22;33.13;;;29.93;;
2049;SDS011;8478;49.208;8.806;2022-12-18T04:32:48;32.73;;;29.50;;
2049;SDS011;8478;49.208;8.806;2022-12-18T04:35:13;31.23;;;28.27;;
2049;SDS011;8478;49.208;8.806;2022-12-18T04:37:39;32.93;;;29.47;;
2049;SDS011;8478;49.208;8.806;2022-12-18T04:40:05;31.57;;;28.30;;
2049;SDS011;8478;49.208;8.806;2022-12-18T04:42:31;31.90;;;28.60;;
2049;SDS011;8478;49.208;8.806;2022-12-18T04:44:56;29.67;;;26.57;;
2049;SDS011;8478;49.208;8.806;2022-12-18T04:47:22;32.83;;;29.33;;
2049;SDS011;8478;49.208;8.806;2022-12-18T04:49:48;31.13;;;28.07;;
2049;SDS011;8478;49.208;8.806;2022-12-18T04:52:14;33.03;;;29.43;;
2049;SDS011;8478;49.208;8.806;2022-12-18T04:54:39;32.63;;;29.53;;
2049;SDS011;8478;49.208;8.806;2022-12-18T04:57:05;33.97;;;30.73;;
2049;SDS011;8478;49.208;8.806;2022-12-18T04:59:30;33.27;;;29.77;;
2049;SDS011;8478;49.208;8.806;2022-12-18T05:01:56;34.17;;;30.70;;
2049;SDS011;8478;49.208;8.806;2022-12-18T05:04:22;37.77;;;30.63;;
2049;SDS011;8478;49.208;8.806;2022-12-18T05:06:47;32.03;;;28.70;;
2049;SDS011;8478;49.208;8.806;2022-12-18T05:09:13;33.40;;;30.00;;
2049;SDS011;8478;49.208;8.806;2022-12-18T05:11:39;34.57;;;30.13;;
2049;SDS011;8478;49.208;8.806;2022-12-18T05:14:05;32.03;;;28.90;;
2049;SDS011;8478;49.208;8.806;2022-12-18T05:16:30;34.77;;;30.67;;
2049;SDS011;8478;49.208;8.806;2022-12-18T05:18:56;33.37;;;29.83;;
2049;SDS011;8478;49.208;8.806;2022-12-18T05:21:22;34.13;;;30.87;;
2049;SDS011;8478;49.208;8.806;2022-12-18T05:23:47;34.33;;;30.73;;
2049;SDS011;8478;49.208;8.806;2022-12-18T05:26:17;33.20;;;29.87;;
2049;SDS011;8478;49.208;8.806;2022-12-18T05:28:43;31.98;;;28.77;;
2049;SDS011;8478;49.208;8.806;2022-12-18T05:31:09;33.03;;;29.60;;
2049;SDS011;8478;49.208;8.806;2022-12-18T05:33:35;33.30;;;29.93;;
2049;SDS011;8478;49.208;8.806;2022-12-18T05:36:04;35.07;;;31.47;;
2049;SDS011;8478;49.208;8.806;2022-12-18T05:38:32;33.47;;;29.67;;
2049;SDS011;8478;49.208;8.806;2022-12-18T05:41:00;33.08;;;29.65;;
2049;SDS011;8478;49.208;8.806;2022-12-18T05:43:26;33.80;;;30.20;;
2049;SDS011;8478;49.208;8.806;2022-12-18T05:45:52;33.92;;;30.45;;
2049;SDS011;8478;49.208;8.806;2022-12-18T05:48:19;34.45;;;30.85;;
2049;SDS011;8478;49.208;8.806;2022-12-18T05:50:46;34.87;;;31.33;;
2049;SDS011;8478;49.208;8.806;2022-12-18T05:53:16;34.45;;;30.88;;
2049;SDS011;8478;49.208;8.806;2022-12-18T05:55:43;33.78;;;30.35;;
2049;SDS011;8478;49.208;8.806;2022-12-18T05:58:09;32.95;;;29.65;;
2049;SDS011;8478;49.208;8.806;2022-12-18T06:00:37;33.85;;;30.25;;
2049;SDS011;8478;49.208;8.806;2022-12-18T06:03:07;34.20;;;30.75;;
2049;SDS011;8478;49.208;8.806;2022-12-18T06:05:38;34.65;;;31.05;;
2049;SDS011;8478;49.208;8.806;2022-12-18T06:08:05;34.22;;;30.63;;
2049;SDS011;8478;49.208;8.806;2022-12-18T06:10:31;34.50;;;30.70;;
2049;SDS011;8478;49.208;8.806;2022-12-18T06:12:57;33.42;;;29.90;;
2049;SDS011;8478;49.208;8.806;2022-12-18T06:15:23;32.37;;;29.07;;
2049;SDS011;8478;49.208;8.806;2022-12-18T06:17:49;35.65;;;31.85;;
2049;SDS011;8478;49.208;8.806;2022-12-18T06:20:15;36.40;;;32.50;;
2049;SDS011;8478;49.208;8.806;2022-12-18T06:22:41;36.23;;;32.53;;
2049;SDS011;8478;49.208;8.806;2022-12-18T06:25:07;36.63;;;32.80;;
2049;SDS011;8478;49.208;8.806;2022-12-18T06:27:33;36.97;;;33.13;;
2049;SDS011;8478;49.208;8.806;2022-12-18T06:29:59;37.20;;;33.40;;
2049;SDS011;8478;49.208;8.806;2022-12-18T06:32:25;37.45;;;33.60;;
2049;SDS011;8478;49.208;8.806;2022-12-18T06:34:51;38.53;;;34.25;;
2049;SDS011;8478;49.208;8.806;2022-12-18T06:37:18;35.53;;;31.83;;
2049;SDS011;8478;49.208;8.806;2022-12-18T06:39:44;36.33;;;32.50;;
2049;SDS011;8478;49.208;8.806;2022-12-18T06:42:10;37.13;;;33.13;;
2049;SDS011;8478;49.208;8.806;2022-12-18T06:44:35;34.50;;;30.87;;
2049;SDS011;8478;49.208;8.806;2022-12-18T06:47:01;35.50;;;31.80;;
2049;SDS011;8478;49.208;8.806;2022-12-18T06:49:27;40.67;;;35.10;;
2049;SDS011;8478;49.208;8.806;2022-12-18T06:51:52;35.80;;;32.13;;
2049;SDS011;8478;49.208;8.806;2022-12-18T06:54:18;36.80;;;33.03;;
2049;SDS011;8478;49.208;8.806;2022-12-18T06:56:46;35.10;;;30.90;;
2049;SDS011;8478;49.208;8.806;2022-12-18T06:59:13;35.53;;;31.90;;
2049;SDS011;8478;49.208;8.806;2022-12-18T07:01:39;37.30;;;30.20;;
2049;SDS011;8478;49.208;8.806;2022-12-18T07:04:05;34.63;;;30.93;;
2049;SDS011;8478;49.208;8.806;2022-12-18T07:06:31;36.33;;;31.60;;
2049;SDS011;8478;49.208;8.806;2022-12-18T07:08:57;37.50;;;31.60;;
2049;SDS011;8478;49.208;8.806;2022-12-18T07:11:22;33.43;;;29.87;;
2049;SDS011;8478;49.208;8.806;2022-12-18T07:13:49;35.55;;;31.70;;
2049;SDS011;8478;49.208;8.806;2022-12-18T07:16:15;33.80;;;30.10;;
2049;SDS011;8478;49.208;8.806;2022-12-18T07:18:43;33.35;;;29.95;;
2049;SDS011;8478;49.208;8.806;2022-12-18T07:21:10;34.20;;;30.50;;
2049;SDS011;8478;49.208;8.806;2022-12-18T07:23:37;37.25;;;33.35;;
2049;SDS011;8478;49.208;8.806;2022-12-18T07:26:04;33.97;;;30.40;;
2049;SDS011;8478;49.208;8.806;2022-12-18T07:28:34;36.22;;;30.27;;
2049;SDS011;8478;49.208;8.806;2022-12-18T07:31:09;33.28;;;29.77;;
2049;SDS011;8478;49.208;8.806;2022-12-18T07:33:37;33.13;;;29.70;;
2049;SDS011;8478;49.208;8.806;2022-12-18T07:36:03;31.45;;;27.33;;
2049;SDS011;8478;49.208;8.806;2022-12-18T07:38:31;31.17;;;27.60;;
2049;SDS011;8478;49.208;8.806;2022-12-18T07:41:00;37.28;;;31.30;;
2049;SDS011;8478;49.208;8.806;2022-12-18T07:43:27;33.00;;;29.60;;
2049;SDS011;8478;49.208;8.806;2022-12-18T07:45:53;34.08;;;30.40;;
2049;SDS011;8478;49.208;8.806;2022-12-18T07:48:19;34.47;;;30.90;;
2049;SDS011;8478;49.208;8.806;2022-12-18T07:50:45;34.63;;;30.33;;
2049;SDS011;8478;49.208;8.806;2022-12-18T07:53:11;33.97;;;30.57;;
2049;SDS011;8478;49.208;8.806;2022-12-18T07:55:36;34.67;;;30.97;;
2049;SDS011;8478;49.208;8.806;2022-12-18T07:58:02;33.20;;;29.80;;
2049;SDS011;8478;49.208;8.806;2022-12-18T08:00:29;34.00;;;30.42;;
2049;SDS011;8478;49.208;8.806;2022-12-18T08:02:56;31.60;;;28.30;;
2049;SDS011;8478;49.208;8.806;2022-12-18T08:05:21;33.13;;;29.55;;
2049;SDS011;8478;49.208;8.806;2022-12-18T08:07:47;35.70;;;32.10;;
2049;SDS011;8478;49.208;8.806;2022-12-18T08:10:13;33.43;;;29.93;;
2049;SDS011;8478;49.208;8.806;2022-12-18T08:12:39;35.50;;;30.77;;
2049;SDS011;8478;49.208;8.806;2022-12-18T08:15:05;35.70;;;31.90;;
2049;SDS011;8478;49.208;8.806;2022-12-18T08:17:31;34.75;;;31.10;;
2049;SDS011;8478;49.208;8.806;2022-12-18T08:19:56;33.47;;;30.03;;
2049;SDS011;8478;49.208;8.806;2022-12-18T08:22:22;34.67;;;31.03;;
2049;SDS011;8478;49.208;8.806;2022-12-18T08:24:48;37.00;;;33.30;;
2049;SDS011;8478;49.208;8.806;2022-12-18T08:27:14;35.47;;;31.67;;
2049;SDS011;8478;49.208;8.806;2022-12-18T08:29:39;37.23;;;31.00;;
2049;SDS011;8478;49.208;8.806;2022-12-18T08:32:05;32.63;;;29.20;;
2049;SDS011;8478;49.208;8.806;2022-12-18T08:34:31;35.53;;;30.10;;
2049;SDS011;8478;49.208;8.806;2022-12-18T08:36:56;32.40;;;28.03;;
2049;SDS011;8478;49.208;8.806;2022-12-18T08:39:22;33.63;;;29.57;;
2049;SDS011;8478;49.208;8.806;2022-12-18T08:41:48;32.70;;;29.20;;
2049;SDS011;8478;49.208;8.806;2022-12-18T08:44:33;33.17;;;29.10;;
2049;SDS011;8478;49.208;8.806;2022-12-18T08:47:02;32.00;;;28.58;;
2049;SDS011;8478;49.208;8.806;2022-12-18T08:49:29;32.70;;;29.30;;
2049;SDS011;8478;49.208;8.806;2022-12-18T08:51:55;32.40;;;29.03;;
2049;SDS011;8478;49.208;8.806;2022-12-18T08:54:24;35.08;;;31.30;;
2049;SDS011;8478;49.208;8.806;2022-12-18T08:56:51;33.17;;;27.02;;
2049;SDS011;8478;49.208;8.806;2022-12-18T08:59:17;30.73;;;27.40;;
2049;SDS011;8478;49.208;8.806;2022-12-18T09:01:43;30.87;;;27.70;;
2049;SDS011;8478;49.208;8.806;2022-12-18T09:04:09;31.73;;;28.45;;
2049;SDS011;8478;49.208;8.806;2022-12-18T09:06:35;32.00;;;28.60;;
2049;SDS011;8478;49.208;8.806;2022-12-18T09:09:02;32.05;;;28.65;;
2049;SDS011;8478;49.208;8.806;2022-12-18T09:11:29;30.45;;;27.30;;
2049;SDS011;8478;49.208;8.806;2022-12-18T09:13:55;29.23;;;26.20;;
2049;SDS011;8478;49.208;8.806;2022-12-18T09:16:22;31.58;;;28.15;;
2049;SDS011;8478;49.208;8.806;2022-12-18T09:18:48;31.50;;;28.37;;
2049;SDS011;8478;49.208;8.806;2022-12-18T09:21:15;31.10;;;27.67;;
2049;SDS011;8478;49.208;8.806;2022-12-18T09:23:49;32.67;;;28.73;;
2049;SDS011;8478;49.208;8.806;2022-12-18T09:26:15;30.20;;;26.65;;
2049;SDS011;8478;49.208;8.806;2022-12-18T09:28:42;29.63;;;26.60;;
2049;SDS011;8478;49.208;8.806;2022-12-18T09:31:08;32.40;;;29.08;;
2049;SDS011;8478;49.208;8.806;2022-12-18T09:33:36;33.25;;;27.10;;
2049;SDS011;8478;49.208;8.806;2022-12-18T09:36:03;30.70;;;27.45;;
2049;SDS011;8478;49.208;8.806;2022-12-18T09:38:30;30.67;;;26.40;;
2049;SDS011;8478;49.208;8.806;2022-12-18T09:40:59;28.60;;;25.50;;
2049;SDS011;8478;49.208;8.806;2022-12-18T09:43:35;33.53;;;29.20;;
2049;SDS011;8478;49.208;8.806;2022-12-18T09:46:09;35.72;;;29.98;;
2049;SDS011;8478;49.208;8.806;2022-12-18T09:48:41;33.37;;;29.77;;
2049;SDS011;8478;49.208;8.806;2022-12-18T09:51:15;33.30;;;26.63;;
2049;SDS011;8478;49.208;8.806;2022-12-18T09:54:05;31.27;;;27.87;;
2049;SDS011;8478;49.208;8.806;2022-12-18T09:56:38;38.80;;;32.10;;
2049;SDS011;8478;49.208;8.806;2022-12-18T09:59:09;36.00;;;31.93;;
2049;SDS011;8478;49.208;8.806;2022-12-18T10:01:50;38.30;;;32.00;;
2049;SDS011;8478;49.208;8.806;2022-12-18T10:04:16;35.10;;;28.00;;
2049;SDS011;8478;49.208;8.806;2022-12-18T10:20:14;30.33;;;25.93;;
2049;SDS011;8478;49.208;8.806;2022-12-18T10:26:06;28.85;;;25.75;;
2049;SDS011;8478;49.208;8.806;2022-12-18T10:28:35;29.03;;;25.43;;
2049;SDS011;8478;49.208;8.806;2022-12-18T10:31:02;32.63;;;27.40;;
2049;SDS011;8478;49.208;8.806;2022-12-18T10:33:41;29.87;;;26.60;;
2049;SDS011;8478;49.208;8.806;2022-12-18T10:36:07;33.33;;;27.50;;
2049;SDS011;8478;49.208;8.806;2022-12-18T10:38:33;34.73;;;29.17;;
2049;SDS011;8478;49.208;8.806;2022-12-18T10:41:03;29.87;;;26.10;;
2049;SDS011;8478;49.208;8.806;2022-12-18T10:44:11;32.35;;;28.58;;
2049;SDS011;8478;49.208;8.806;2022-12-18T10:46:37;34.53;;;27.67;;
2049;SDS011;8478;49.208;8.806;2022-12-18T10:49:03;33.10;;;28.63;;
2049;SDS011;8478;49.208;8.806;2022-12-18T10:51:34;31.97;;;28.37;;
2049;SDS011;8478;49.208;8.806;2022-12-18T10:54:06;31.17;;;27.80;;
2049;SDS011;8478;49.208;8.806;2022-12-18T10:56:43;31.30;;;27.93;;
2049;SDS011;8478;49.208;8.806;2022-12-18T10:59:10;30.33;;;27.20;;
2049;SDS011;8478;49.208;8.806;2022-12-18T11:01:56;29.30;;;26.20;;
2049;SDS011;8478;49.208;8.806;2022-12-18T11:04:23;33.60;;;28.50;;
2049;SDS011;8478;49.208;8.806;2022-12-18T11:07:07;28.97;;;25.90;;
2049;SDS011;8478;49.208;8.806;2022-12-18T11:09:35;34.20;;;27.00;;
2049;SDS011;8478;49.208;8.806;2022-12-18T11:12:14;32.47;;;27.40;;
2049;SDS011;8478;49.208;8.806;2022-12-18T11:14:47;29.60;;;25.60;;
2049;SDS011;8478;49.208;8.806;2022-12-18T11:19:45;32.87;;;27.30;;
2049;SDS011;8478;49.208;8.806;2022-12-18T11:22:34;31.13;;;26.13;;
2049;SDS011;8478;49.208;8.806;2022-12-18T11:27:36;29.57;;;26.03;;
2049;SDS011;8478;49.208;8.806;2022-12-18T11:30:07;29.98;;;26.83;;
2049;SDS011;8478;49.208;8.806;2022-12-18T11:32:38;32.50;;;28.23;;
2049;SDS011;8478;49.208;8.806;2022-12-18T11:35:13;28.98;;;26.00;;
2049;SDS011;8478;49.208;8.806;2022-12-18T11:37:47;31.50;;;27.15;;
2049;SDS011;8478;49.208;8.806;2022-12-18T11:40:19;32.30;;;26.03;;
2049;SDS011;8478;49.208;8.806;2022-12-18T11:43:02;32.60;;;26.75;;
2049;SDS011;8478;49.208;8.806;2022-12-18T11:45:35;30.27;;;27.07;;
2049;SDS011;8478;49.208;8.806;2022-12-18T11:48:27;31.20;;;27.83;;
2049;SDS011;8478;49.208;8.806;2022-12-18T11:50:59;33.05;;;26.85;;
2049;SDS011;8478;49.208;8.806;2022-12-18T11:53:28;29.93;;;24.60;;
2049;SDS011;8478;49.208;8.806;2022-12-18T11:59:32;31.93;;;26.50;;
2049;SDS011;8478;49.208;8.806;2022-12-18T12:05:04;35.53;;;27.27;;
2049;SDS011;8478;49.208;8.806;2022-12-18T12:10:19;28.08;;;24.45;;
2049;SDS011;8478;49.208;8.806;2022-12-18T12:25:53;32.20;;;26.40;;
2049;SDS011;8478;49.208;8.806;2022-12-18T12:31:32;34.80;;;27.03;;
2049;SDS011;8478;49.208;8.806;2022-12-18T12:37:07;31.63;;;26.40;;
2049;SDS011;8478;49.208;8.806;2022-12-18T12:40:00;29.77;;;26.37;;
2049;SDS011;8478;49.208;8.806;2022-12-18T12:42:35;31.07;;;27.30;;
2049;SDS011;8478;49.208;8.806;2022-12-18T12:45:30;31.60;;;27.53;;
2049;SDS011;8478;49.208;8.806;2022-12-18T12:48:04;31.70;;;26.95;;
2049;SDS011;8478;49.208;8.806;2022-12-18T12:50:38;30.90;;;25.73;;
2049;SDS011;8478;49.208;8.806;2022-12-18T12:53:06;33.60;;;28.47;;
2049;SDS011;8478;49.208;8.806;2022-12-18T12:55:39;32.80;;;27.10;;
2049;SDS011;8478;49.208;8.806;2022-12-18T13:08:58;32.13;;;26.77;;
2049;SDS011;8478;49.208;8.806;2022-12-18T13:11:35;31.00;;;27.80;;
2049;SDS011;8478;49.208;8.806;2022-12-18T13:17:17;32.55;;;27.73;;
2049;SDS011;8478;49.208;8.806;2022-12-18T13:20:04;30.48;;;27.08;;
2049;SDS011;8478;49.208;8.806;2022-12-18T13:22:36;30.73;;;26.83;;
2049;SDS011;8478;49.208;8.806;2022-12-18T13:28:15;31.27;;;27.13;;
2049;SDS011;8478;49.208;8.806;2022-12-18T13:30:55;30.23;;;26.73;;
2049;SDS011;8478;49.208;8.806;2022-12-18T13:38:23;34.33;;;26.63;;
2049;SDS011;8478;49.208;8.806;2022-12-18T13:43:49;33.87;;;26.10;;
2049;SDS011;8478;49.208;8.806;2022-12-18T13:46:23;33.60;;;28.00;;
2049;SDS011;8478;49.208;8.806;2022-12-18T13:48:58;28.50;;;25.40;;
2049;SDS011;8478;49.208;8.806;2022-12-18T13:51:27;29.58;;;26.42;;
2049;SDS011;8478;49.208;8.806;2022-12-18T13:53:58;32.85;;;27.38;;
2049;SDS011;8478;49.208;8.806;2022-12-18T13:56:28;30.30;;;26.03;;
2049;SDS011;8478;49.208;8.806;2022-12-18T14:01:48;29.80;;;24.57;;
2049;SDS011;8478;49.208;8.806;2022-12-18T14:04:20;27.90;;;24.37;;
2049;SDS011;8478;49.208;8.806;2022-12-18T14:06:50;31.07;;;25.93;;
2049;SDS011;8478;49.208;8.806;2022-12-18T14:09:24;29.73;;;25.63;;
2049;SDS011;8478;49.208;8.806;2022-12-18T14:11:55;34.25;;;26.63;;
2049;SDS011;8478;49.208;8.806;2022-12-18T14:14:41;34.47;;;26.80;;
2049;SDS011;8478;49.208;8.806;2022-12-18T14:17:12;32.70;;;24.80;;
2049;SDS011;8478;49.208;8.806;2022-12-18T14:19:46;32.50;;;27.13;;
2049;SDS011;8478;49.208;8.806;2022-12-18T14:22:16;32.13;;;26.60;;
2049;SDS011;8478;49.208;8.806;2022-12-18T14:24:44;32.77;;;26.30;;
2049;SDS011;8478;49.208;8.806;2022-12-18T14:27:24;36.73;;;28.00;;
2049;SDS011;8478;49.208;8.806;2022-12-18T14:29:50;30.27;;;25.33;;
2049;SDS011;8478;49.208;8.806;2022-12-18T14:32:20;36.13;;;29.53;;
2049;SDS011;8478;49.208;8.806;2022-12-18T14:34:46;38.23;;;29.07;;
2049;SDS011;8478;49.208;8.806;2022-12-18T14:37:14;37.27;;;27.47;;
2049;SDS011;8478;49.208;8.806;2022-12-18T14:40:00;35.77;;;29.67;;
2049;SDS011;8478;49.208;8.806;2022-12-18T14:42:27;39.57;;;31.20;;
2049;SDS011;8478;49.208;8.806;2022-12-18T14:48:18;61.57;;;34.77;;
2049;SDS011;8478;49.208;8.806;2022-12-18T14:50:54;39.80;;;28.50;;
2049;SDS011;8478;49.208;8.806;2022-12-18T14:53:36;35.83;;;27.80;;
2049;SDS011;8478;49.208;8.806;2022-12-18T14:56:20;41.63;;;29.88;;
2049;SDS011;8478;49.208;8.806;2022-12-18T14:59:00;40.85;;;25.83;;
2049;SDS011;8478;49.208;8.806;2022-12-18T15:01:38;44.03;;;28.53;;
2049;SDS011;8478;49.208;8.806;2022-12-18T15:07:39;35.53;;;27.83;;
2049;SDS011;8478;49.208;8.806;2022-12-18T15:18:03;48.13;;;30.13;;
2049;SDS011;8478;49.208;8.806;2022-12-18T15:20:52;42.37;;;29.87;;
2049;SDS011;8478;49.208;8.806;2022-12-18T15:26:10;36.63;;;28.20;;
2049;SDS011;8478;49.208;8.806;2022-12-18T15:28:39;32.70;;;26.57;;
2049;SDS011;8478;49.208;8.806;2022-12-18T15:33:44;34.67;;;29.42;;
2049;SDS011;8478;49.208;8.806;2022-12-18T15:36:20;41.20;;;30.33;;
2049;SDS011;8478;49.208;8.806;2022-12-18T15:38:48;33.60;;;29.50;;
2049;SDS011;8478;49.208;8.806;2022-12-18T15:41:17;35.53;;;29.60;;
2049;SDS011;8478;49.208;8.806;2022-12-18T15:43:45;37.27;;;30.87;;
2049;SDS011;8478;49.208;8.806;2022-12-18T15:46:20;33.43;;;28.67;;
2049;SDS011;8478;49.208;8.806;2022-12-18T15:48:48;36.43;;;28.60;;
2049;SDS011;8478;49.208;8.806;2022-12-18T15:51:23;34.97;;;27.50;;
2049;SDS011;8478;49.208;8.806;2022-12-18T15:54:00;37.17;;;29.05;;
2049;SDS011;8478;49.208;8.806;2022-12-18T15:56:29;35.55;;;29.63;;
2049;SDS011;8478;49.208;8.806;2022-12-18T15:59:14;32.00;;;27.47;;
2049;SDS011;8478;49.208;8.806;2022-12-18T16:01:42;30.30;;;25.77;;
2049;SDS011;8478;49.208;8.806;2022-12-18T16:04:11;34.70;;;28.60;;
2049;SDS011;8478;49.208;8.806;2022-12-18T16:06:38;32.93;;;29.13;;
2049;SDS011;8478;49.208;8.806;2022-12-18T16:09:04;33.83;;;28.47;;
2049;SDS011;8478;49.208;8.806;2022-12-18T16:11:31;29.53;;;26.07;;
2049;SDS011;8478;49.208;8.806;2022-12-18T16:14:05;35.10;;;27.23;;
2049;SDS011;8478;49.208;8.806;2022-12-18T16:16:44;33.77;;;27.50;;
2049;SDS011;8478;49.208;8.806;2022-12-18T16:19:10;40.27;;;32.43;;
2049;SDS011;8478;49.208;8.806;2022-12-18T16:21:37;40.13;;;31.97;;
2049;SDS011;8478;49.208;8.806;2022-12-18T16:24:03;44.17;;;35.63;;
2049;SDS011;8478;49.208;8.806;2022-12-18T16:26:29;36.10;;;32.10;;
2049;SDS011;8478;49.208;8.806;2022-12-18T16:28:55;40.93;;;34.20;;
2049;SDS011;8478;49.208;8.806;2022-12-18T16:31:20;38.40;;;32.60;;
2049;SDS011;8478;49.208;8.806;2022-12-18T16:33:46;34.07;;;29.43;;
2049;SDS011;8478;49.208;8.806;2022-12-18T16:36:12;36.80;;;31.27;;
2049;SDS011;8478;49.208;8.806;2022-12-18T16:38:37;35.67;;;31.87;;
2049;SDS011;8478;49.208;8.806;2022-12-18T16:41:07;34.77;;;30.67;;
2049;SDS011;8478;49.208;8.806;2022-12-18T16:43:59;35.95;;;31.27;;
2049;SDS011;8478;49.208;8.806;2022-12-18T16:46:25;35.30;;;29.60;;
2049;SDS011;8478;49.208;8.806;2022-12-18T16:48:52;36.57;;;31.87;;
2049;SDS011;8478;49.208;8.806;2022-12-18T16:51:17;36.13;;;30.07;;
2049;SDS011;8478;49.208;8.806;2022-12-18T16:53:43;35.07;;;31.23;;
2049;SDS011;8478;49.208;8.806;2022-12-18T16:56:09;33.23;;;28.40;;
2049;SDS011;8478;49.208;8.806;2022-12-18T16:58:34;33.83;;;30.10;;
2049;SDS011;8478;49.208;8.806;2022-12-18T17:01:00;32.50;;;29.00;;
2049;SDS011;8478;49.208;8.806;2022-12-18T17:03:31;35.37;;;29.73;;
2049;SDS011;8478;49.208;8.806;2022-12-18T17:06:01;39.07;;;28.60;;
2049;SDS011;8478;49.208;8.806;2022-12-18T17:08:30;34.07;;;28.23;;
2049;SDS011;8478;49.208;8.806;2022-12-18T17:10:56;30.33;;;26.27;;